Nearby METAR Reports

 

KRDU - Raleigh/Durham, North Carolina, USA
Distance from station: NNW 20mi, 33km
Updated: Tue, 23-Apr-2019 4:51am EDT
Clear
Clear
 Wind from calm
Wind: Calm
Temperature: 50°F , 10°C
Dew Point: 46°F , 8°C
Humidity: 88%
Barometer: 30.11 inHg , 1019.6 hPa
Clouds: Clear
Visibility: 10 miles , 16 km
2019/04/23 08:51 KRDU 230851Z 00000KT 10SM CLR 10/08 A3011 RMK AO2 SLP194 T01000083 56007
KJNX - Smithfield Johns, North Carolina, USA
Distance from station: ESE 17mi, 28km
Updated: Tue, 23-Apr-2019 5:25am EDT
Clear
Clear
 Wind from calm
Wind: Calm
Temperature: 46°F , 8°C
Dew Point: 46°F , 8°C
Humidity: 100%
Barometer: 30.11 inHg , 1019.6 hPa
Clouds: Clear
Visibility: 10 miles , 16 km
2019/04/23 09:25 KJNX 230925Z AUTO 00000KT 10SM CLR 08/08 A3011 RMK AO2
 
KLHZ - Louisburg/Frankl, North Carolina, USA
Distance from station: NE 33mi, 54km
Updated: Tue, 23-Apr-2019 5:20am EDT
Clear
Clear
 Wind from calm
Wind: Calm
Temperature: 45°F , 7°C
Dew Point: 45°F , 7°C
Humidity: 100%
Barometer: 30.13 inHg , 1020.3 hPa
Clouds: Clear
Visibility: 10 miles , 16 km
2019/04/23 09:20 KLHZ 230920Z AUTO 00000KT 10SM CLR 07/07 A3013 RMK AO2
KPOB - Pope Afb, North Carolina, USA
Distance from station: SSW 37mi, 59km
Updated: Tue, 23-Apr-2019 4:56am EDT
Clear
Clear
 Wind from calm
Wind: Calm
Temperature: 48°F , 9°C
Dew Point: 46°F , 8°C
Humidity: 94%
Barometer: 30.11 inHg , 1019.6 hPa
Clouds: Clear
Visibility: 10 miles , 16 km
2019/04/23 08:56 KPOB 230856Z AUTO 00000KT 10SM CLR 09/08 A3011 RMK AO2 SLP199 T00880077 57004 $
 
KFBG - Fort Bragg/Simmo, North Carolina, USA
Distance from station: SSW 37mi, 60km
Updated: Tue, 23-Apr-2019 4:56am EDT
Clear
Clear
 Wind from calm
Wind: Calm
Temperature: 50°F , 10°C
Dew Point: 50°F , 10°C
Humidity: 100%
Barometer: 30.10 inHg , 1019.3 hPa
Clouds: Clear
Visibility: 10 miles , 16 km
2019/04/23 08:56 KFBG 230856Z AUTO 00000KT 10SM CLR 10/10 A3010 RMK AO2 SLP195 T01000100 57005
KSCR - Siler City, North Carolina, USA
Distance from station: W 47mi, 75km
Updated: Tue, 23-Apr-2019 5:20am EDT
Clear
Clear
 Wind from calm
Wind: Calm
Temperature: 45°F , 7°C
Dew Point: 45°F , 7°C
Humidity: 100%
Barometer: 30.11 inHg , 1019.6 hPa
Clouds: Clear
Visibility: 10 miles , 16 km
2019/04/23 09:20 KSCR 230920Z AUTO 00000KT 10SM CLR 07/07 A3011 RMK AO2 T00730070
 
KTDF - Roxboro Person, North Carolina, USA
Distance from station: NNW 49mi, 79km
Updated: Tue, 23-Apr-2019 5:20am EDT
Clear
Clear
 Wind from calm
Wind: Calm
Temperature: 45°F , 7°C
Dew Point: 45°F , 7°C
Humidity: 100%
Barometer: 30.13 inHg , 1020.3 hPa
Clouds: Clear
Visibility: 10 miles , 16 km
2019/04/23 09:20 KTDF 230920Z AUTO 00000KT 10SM CLR 07/07 A3013 RMK AO2
KSOP - Southern Pines, North Carolina, USA
Distance from station: SW 50mi, 80km
Updated: Tue, 23-Apr-2019 4:56am EDT
Clear
Clear
 Wind from calm
Wind: Calm
Temperature: 46°F , 8°C
Dew Point: 46°F , 8°C
Humidity: 100%
Barometer: 30.12 inHg , 1020 hPa
Clouds: Clear
Visibility: 10 miles , 16 km
2019/04/23 08:56 KSOP 230856Z AUTO 00000KT 10SM CLR 08/08 A3012 RMK AO2 SLP216 T00830083 56004
 
KHNZ - Henderson/Oxford, North Carolina, USA
Distance from station: N 52mi, 84km
Updated: Tue, 23-Apr-2019 5:20am EDT
Clear
Clear
 Wind from WSW
Wind: WSW 3 mph , 6 km/h
Temperature: 45°F , 7°C
Dew Point: 45°F , 7°C
Humidity: 100%
Barometer: 30.10 inHg , 1019.3 hPa
Clouds: Clear
Visibility: 10 miles , 16 km
2019/04/23 09:20 KHNZ 230920Z AUTO 24003KT 10SM CLR 07/07 A3010 RMK AO2 T00730067
KBUY - Burlington, North Carolina, USA
Distance from station: NW 54mi, 86km
Updated: Tue, 23-Apr-2019 4:54am EDT
Clear
Clear
 Wind from calm
Wind: Calm
Temperature: 48°F , 9°C
Dew Point: 46°F , 8°C
Humidity: 94%
Barometer: 30.10 inHg , 1019.3 hPa
Clouds: Clear
Visibility: 10 miles , 16 km
2019/04/23 08:54 KBUY 230854Z AUTO 00000KT 10SM CLR 09/08 A3010 RMK AO2 SLP190 T00940078 56006
 
KTNB - Boone Watauga Ct, North Carolina, USA
Distance from station: SE 2mi, 3km
Updated: Tue, 23-Apr-2019 5:15am EDT
Clear
Clear
 Wind from calm
Wind: Calm
Temperature: 41°F , 5°C
Dew Point: 41°F , 5°C
Humidity: 100%
Barometer: 30.17 inHg , 1021.7 hPa
Clouds: Clear
Visibility: 10 miles , 16 km
2019/04/23 09:15 KTNB 230915Z AUTO 00000KT 10SM CLR 05/05 A3017 RMK AO2 T00510051
KGEV - Jefferson, North Carolina, USA
Distance from station: NE 21mi, 33km
Updated: Tue, 23-Apr-2019 5:25am EDT
Clear
Clear
 Wind from calm
Wind: Calm
Temperature: 48°F , 9°C
Dew Point: 43°F , 6°C
Humidity: 82%
Barometer: 30.16 inHg , 1021.3 hPa
Clouds: Clear
Visibility: 10 miles , 16 km
2019/04/23 09:25 KGEV 230925Z AUTO 00000KT 10SM CLR 09/06 A3016 RMK AO2 T00920055
 
KFQD - Rutherfordton, North Carolina, USA
Distance from station: SSW 57mi, 92km
Updated: Tue, 23-Apr-2019 5:20am EDT
Clear
Clear
 Wind from WNW
Wind: WNW 3 mph , 6 km/h
Temperature: 46°F , 8°C
Dew Point: 46°F , 8°C
Humidity: 100%
Barometer: 30.11 inHg , 1019.6 hPa
Clouds: Clear
Visibility: 10 miles , 16 km
2019/04/23 09:20 KFQD 230920Z AUTO 30003KT 10SM CLR 08/08 A3011 RMK AO2
KAVL - Asheville, North Carolina, USA
Distance from station: SW 72mi, 117km
Updated: Tue, 23-Apr-2019 4:54am EDT
Clear
Clear
 Wind from calm
Wind: Calm
Temperature: 48°F , 9°C
Dew Point: 45°F , 7°C
Humidity: 87%
Barometer: 30.16 inHg , 1021.3 hPa
Clouds: Clear
Visibility: 10 miles , 16 km
2019/04/23 08:54 KAVL 230854Z AUTO 00000KT 10SM CLR 09/07 A3016 RMK AO2 SLP196 T00890067 56009